Time;durP1;ratioP1;P1;durP2;ratioP2;P2;SDS_P1;SDS_P2;PMS_P1;PMS_P2;Temp;Humidity;BMP_temperature;BMP_pressure;BME280_temperature;BME280_humidity;BME280_pressure;Samples;Min_cycle;Max_cycle;Signal;HPM_P1;HPM_P2
2023/11/25 00:00:26;;;;;;;56.17;2.50;;;;;;;;;;5075206;28;20231;-71
2023/11/25 00:02:55;;;;;;;56.25;2.60;;;;;;;;;;5074687;28;20226;-70
2023/11/25 00:05:22;;;;;;;56.08;2.80;;;;;;;;;;5073730;28;20638;-70
2023/11/25 00:07:49;;;;;;;56.20;3.38;;;;;;;;;;5074529;28;20212;-70
2023/11/25 00:10:18;;;;;;;56.40;3.30;;;;;;;;;;5073495;28;20306;-71
2023/11/25 00:12:46;;;;;;;56.38;2.97;;;;;;;;;;5068735;28;20230;-72
2023/11/25 00:15:14;;;;;;;56.30;3.00;;;;;;;;;;5058140;28;20310;-72
2023/11/25 00:17:42;;;;;;;56.10;2.90;;;;;;;;;;5056501;28;20206;-71
2023/11/25 00:20:10;;;;;;;56.17;2.90;;;;;;;;;;5055700;28;20222;-70
2023/11/25 00:22:37;;;;;;;56.30;2.90;;;;;;;;;;5055436;28;20482;-72
2023/11/25 00:25:04;;;;;;;55.78;2.70;;;;;;;;;;5064723;28;20233;-71
2023/11/25 00:27:33;;;;;;;55.95;3.00;;;;;;;;;;5072669;28;20194;-71
2023/11/25 00:30:00;;;;;;;56.17;2.90;;;;;;;;;;5072716;28;20191;-71
2023/11/25 00:32:27;;;;;;;56.15;3.05;;;;;;;;;;5061912;28;20222;-72
2023/11/25 00:34:54;;;;;;;56.30;2.97;;;;;;;;;;5054419;28;20206;-72
2023/11/25 00:37:21;;;;;;;56.00;2.63;;;;;;;;;;5053583;28;20207;-72
2023/11/25 00:39:49;;;;;;;56.20;2.70;;;;;;;;;;5053783;28;20212;-72
2023/11/25 00:42:16;;;;;;;56.05;2.90;;;;;;;;;;5053184;28;20237;-72
2023/11/25 00:44:44;;;;;;;56.08;2.70;;;;;;;;;;5053460;28;20198;-72
2023/11/25 00:47:13;;;;;;;56.08;2.95;;;;;;;;;;5054308;28;20212;-72
2023/11/25 00:49:41;;;;;;;56.30;2.95;;;;;;;;;;5053351;28;20604;-71
2023/11/25 00:52:08;;;;;;;55.78;2.60;;;;;;;;;;5053697;28;20231;-71
2023/11/25 00:54:35;;;;;;;56.00;2.60;;;;;;;;;;5053387;28;20205;-72
2023/11/25 00:57:02;;;;;;;55.97;3.00;;;;;;;;;;5053212;28;20215;-72
2023/11/25 00:59:30;;;;;;;56.10;2.70;;;;;;;;;;5053431;28;20218;-73
2023/11/25 01:01:58;;;;;;;56.17;3.25;;;;;;;;;;5053220;28;20304;-72
2023/11/25 01:04:25;;;;;;;56.08;2.88;;;;;;;;;;5053273;28;20199;-73
2023/11/25 01:06:52;;;;;;;55.97;2.88;;;;;;;;;;5053331;28;20207;-71
2023/11/25 01:09:19;;;;;;;56.00;3.08;;;;;;;;;;5052798;28;20217;-72
2023/11/25 01:11:46;;;;;;;55.97;2.85;;;;;;;;;;5052849;28;20229;-72
2023/11/25 01:14:13;;;;;;;56.00;2.95;;;;;;;;;;5053245;28;20210;-72
2023/11/25 01:16:41;;;;;;;56.00;2.60;;;;;;;;;;5052793;28;20203;-72
2023/11/25 01:19:09;;;;;;;56.08;2.65;;;;;;;;;;5052943;28;20213;-72
2023/11/25 01:21:36;;;;;;;55.88;3.00;;;;;;;;;;5052776;28;20256;-72
2023/11/25 01:24:06;;;;;;;55.95;2.75;;;;;;;;;;5052765;28;20213;-72
2023/11/25 01:26:33;;;;;;;56.10;2.78;;;;;;;;;;5052878;28;20199;-72
2023/11/25 01:29:00;;;;;;;55.88;2.70;;;;;;;;;;5052736;28;20203;-71
2023/11/25 01:31:27;;;;;;;56.05;2.80;;;;;;;;;;5052482;28;20226;-71
2023/11/25 01:33:55;;;;;;;56.20;2.90;;;;;;;;;;5052546;28;20213;-71
2023/11/25 01:36:23;;;;;;;56.20;3.20;;;;;;;;;;5052799;28;20207;-72
2023/11/25 01:38:50;;;;;;;55.88;2.80;;;;;;;;;;5052575;28;20208;-71
2023/11/25 01:41:18;;;;;;;55.78;2.60;;;;;;;;;;5052456;28;20227;-72
2023/11/25 01:43:45;;;;;;;56.15;3.03;;;;;;;;;;5052269;28;20686;-71
2023/11/25 01:46:13;;;;;;;56.00;2.60;;;;;;;;;;5052393;28;20214;-72
2023/11/25 01:48:40;;;;;;;56.00;2.63;;;;;;;;;;5052144;28;20214;-72
2023/11/25 01:51:07;;;;;;;56.00;2.50;;;;;;;;;;5051982;28;20207;-72
2023/11/25 01:53:38;;;;;;;56.50;3.30;;;;;;;;;;5052076;28;20199;-71
2023/11/25 01:56:05;;;;;;;56.08;2.85;;;;;;;;;;5051902;28;20206;-71
2023/11/25 01:58:33;;;;;;;56.20;2.90;;;;;;;;;;5052210;28;20590;-72
2023/11/25 02:01:00;;;;;;;56.20;2.88;;;;;;;;;;5051811;28;20206;-72
2023/11/25 02:03:27;;;;;;;56.08;3.03;;;;;;;;;;5052297;28;20238;-71
2023/11/25 02:05:54;;;;;;;56.20;2.95;;;;;;;;;;5052502;28;20568;-72
2023/11/25 02:08:22;;;;;;;56.10;2.92;;;;;;;;;;5052448;28;20199;-72
2023/11/25 02:10:52;;;;;;;56.20;2.60;;;;;;;;;;5052003;28;20203;-72
2023/11/25 02:13:19;;;;;;;56.17;2.90;;;;;;;;;;5052423;28;20194;-71
2023/11/25 02:15:46;;;;;;;56.10;3.00;;;;;;;;;;5052421;28;20199;-72
2023/11/25 02:18:13;;;;;;;56.20;2.70;;;;;;;;;;5052024;28;20238;-71
2023/11/25 02:20:41;;;;;;;56.15;2.95;;;;;;;;;;5051860;28;20286;-72
2023/11/25 02:23:18;;;;;;;56.05;2.95;;;;;;;;;;5051468;28;20238;-72
2023/11/25 02:25:47;;;;;;;56.08;2.90;;;;;;;;;;5051509;28;20226;-71
2023/11/25 02:28:14;;;;;;;56.20;2.60;;;;;;;;;;5051619;28;20298;-72
2023/11/25 02:30:42;;;;;;;56.20;2.90;;;;;;;;;;5051346;28;20207;-71
2023/11/25 02:33:09;;;;;;;56.20;2.60;;;;;;;;;;5051505;28;20231;-71
2023/11/25 02:35:36;;;;;;;55.90;2.50;;;;;;;;;;5051102;28;20556;-71
2023/11/25 02:38:04;;;;;;;56.03;2.70;;;;;;;;;;5051248;28;20259;-72
2023/11/25 02:40:33;;;;;;;56.17;2.90;;;;;;;;;;5051142;28;20211;-72
2023/11/25 02:43:00;;;;;;;55.88;2.72;;;;;;;;;;5051000;28;20225;-71
2023/11/25 02:45:27;;;;;;;55.88;2.72;;;;;;;;;;5051324;28;20217;-72
2023/11/25 02:47:55;;;;;;;56.20;3.00;;;;;;;;;;5051105;28;20201;-72
2023/11/25 02:50:22;;;;;;;56.15;3.53;;;;;;;;;;5051203;28;20259;-72
2023/11/25 02:52:50;;;;;;;55.90;2.65;;;;;;;;;;5051178;28;20229;-71
2023/11/25 02:55:18;;;;;;;56.60;3.40;;;;;;;;;;5050981;28;20539;-71
2023/11/25 02:57:46;;;;;;;56.08;2.85;;;;;;;;;;5051149;28;20686;-72
2023/11/25 03:00:17;;;;;;;56.25;2.70;;;;;;;;;;5052229;28;20233;-71
2023/11/25 03:02:44;;;;;;;56.25;2.90;;;;;;;;;;5055385;28;20235;-71
2023/11/25 03:05:13;;;;;;;55.97;2.60;;;;;;;;;;5054995;28;20212;-71
2023/11/25 03:07:40;;;;;;;55.97;2.72;;;;;;;;;;5055344;28;20210;-72
2023/11/25 03:10:09;;;;;;;56.20;2.80;;;;;;;;;;5054866;28;20302;-72
2023/11/25 03:12:36;;;;;;;56.10;2.90;;;;;;;;;;5054995;28;20226;-71
2023/11/25 03:15:04;;;;;;;56.40;3.10;;;;;;;;;;5054808;28;20646;-71
2023/11/25 03:17:32;;;;;;;56.15;2.70;;;;;;;;;;5055054;28;20256;-72
2023/11/25 03:19:59;;;;;;;56.00;2.72;;;;;;;;;;5055111;28;20209;-71
2023/11/25 03:22:26;;;;;;;56.10;2.92;;;;;;;;;;5054863;28;20227;-72
2023/11/25 03:24:53;;;;;;;55.85;2.70;;;;;;;;;;5055127;28;20760;-71
2023/11/25 03:27:21;;;;;;;55.97;2.70;;;;;;;;;;5055307;28;20301;-72
2023/11/25 03:29:48;;;;;;;55.97;2.70;;;;;;;;;;5055096;28;20229;-71
2023/11/25 03:32:16;;;;;;;56.22;3.00;;;;;;;;;;5054538;28;20229;-71
2023/11/25 03:34:44;;;;;;;56.10;2.78;;;;;;;;;;5054445;28;20210;-72
2023/11/25 03:37:11;;;;;;;55.97;2.50;;;;;;;;;;5053905;28;20211;-72
2023/11/25 03:39:38;;;;;;;56.10;2.70;;;;;;;;;;5054345;28;20722;-72
2023/11/25 03:42:06;;;;;;;56.20;2.83;;;;;;;;;;5054340;28;20266;-71
2023/11/25 03:44:34;;;;;;;56.05;3.13;;;;;;;;;;5054328;28;20690;-72
2023/11/25 03:47:01;;;;;;;55.95;2.80;;;;;;;;;;5054196;28;20563;-72
2023/11/25 03:49:29;;;;;;;55.92;2.50;;;;;;;;;;5054208;28;20206;-72
2023/11/25 03:51:57;;;;;;;55.88;2.92;;;;;;;;;;5053934;28;20726;-72
2023/11/25 03:54:24;;;;;;;55.90;3.10;;;;;;;;;;5053997;28;20586;-71
2023/11/25 03:56:51;;;;;;;56.20;2.85;;;;;;;;;;5053993;28;20207;-71
2023/11/25 03:59:18;;;;;;;56.00;2.90;;;;;;;;;;5053837;28;20624;-72
2023/11/25 04:01:46;;;;;;;56.00;3.00;;;;;;;;;;5053964;28;20229;-73
2023/11/25 04:04:13;;;;;;;55.90;2.50;;;;;;;;;;5053647;28;20234;-72
2023/11/25 04:06:42;;;;;;;56.08;2.72;;;;;;;;;;5053786;28;20214;-71
2023/11/25 04:09:09;;;;;;;56.08;2.90;;;;;;;;;;5053696;28;20237;-71
2023/11/25 04:11:36;;;;;;;55.78;2.90;;;;;;;;;;5053172;28;20703;-71
2023/11/25 04:14:04;;;;;;;55.95;2.60;;;;;;;;;;5053409;28;20213;-70
2023/11/25 04:16:31;;;;;;;55.97;2.90;;;;;;;;;;5053807;28;20560;-72
2023/11/25 04:18:59;;;;;;;56.00;2.70;;;;;;;;;;5053588;28;20700;-71
2023/11/25 04:21:26;;;;;;;56.03;2.60;;;;;;;;;;5053612;28;20222;-71
2023/11/25 04:23:55;;;;;;;55.85;2.95;;;;;;;;;;5053512;28;20227;-72
2023/11/25 04:26:24;;;;;;;55.88;2.60;;;;;;;;;;5053474;28;20209;-71
2023/11/25 04:28:52;;;;;;;56.28;2.70;;;;;;;;;;5053562;28;20599;-70
2023/11/25 04:31:20;;;;;;;56.00;2.80;;;;;;;;;;5053375;28;20231;-71
2023/11/25 04:33:47;;;;;;;56.05;2.72;;;;;;;;;;5053230;28;20210;-70
2023/11/25 04:36:14;;;;;;;56.10;2.97;;;;;;;;;;5053215;28;20207;-70
2023/11/25 04:38:41;;;;;;;56.00;2.90;;;;;;;;;;5053414;28;20309;-70
2023/11/25 04:41:10;;;;;;;56.10;3.35;;;;;;;;;;5053001;28;20609;-70
2023/11/25 04:43:37;;;;;;;55.97;2.67;;;;;;;;;;5053175;28;20229;-70
2023/11/25 04:46:04;;;;;;;55.78;2.75;;;;;;;;;;5053189;28;20218;-69
2023/11/25 04:48:34;;;;;;;56.00;2.50;;;;;;;;;;5053204;28;20668;-70
2023/11/25 04:51:01;;;;;;;56.30;2.88;;;;;;;;;;5052987;28;20206;-70
2023/11/25 04:53:28;;;;;;;56.00;2.67;;;;;;;;;;5052886;28;20686;-71
2023/11/25 04:55:55;;;;;;;62.83;3.80;;;;;;;;;;5053138;28;20203;-71
2023/11/25 04:58:23;;;;;;;55.90;2.50;;;;;;;;;;5053048;28;20212;-71
2023/11/25 05:00:50;;;;;;;56.00;2.60;;;;;;;;;;5053014;28;20215;-71
2023/11/25 05:03:17;;;;;;;56.00;2.38;;;;;;;;;;5052945;28;20321;-71
2023/11/25 05:05:45;;;;;;;56.08;2.75;;;;;;;;;;5052957;28;20355;-71
2023/11/25 05:08:12;;;;;;;55.95;2.70;;;;;;;;;;5052840;28;20210;-70
2023/11/25 05:10:39;;;;;;;55.78;2.58;;;;;;;;;;5052437;28;20217;-71
2023/11/25 05:13:06;;;;;;;55.97;2.80;;;;;;;;;;5052635;28;20226;-71
2023/11/25 05:15:36;;;;;;;56.20;3.05;;;;;;;;;;5052827;28;20200;-71
2023/11/25 05:18:03;;;;;;;55.97;2.75;;;;;;;;;;5052800;28;20697;-71
2023/11/25 05:20:30;;;;;;;55.97;3.38;;;;;;;;;;5052586;28;20297;-71
2023/11/25 05:22:57;;;;;;;56.08;3.30;;;;;;;;;;5051741;28;20333;-70
2023/11/25 05:25:24;;;;;;;55.97;2.80;;;;;;;;;;5051950;28;20660;-71
2023/11/25 05:27:51;;;;;;;56.17;2.90;;;;;;;;;;5052520;28;20205;-71
2023/11/25 05:30:18;;;;;;;56.00;2.60;;;;;;;;;;5052133;28;20687;-71
2023/11/25 05:32:46;;;;;;;56.20;2.80;;;;;;;;;;5052450;28;20604;-70
2023/11/25 05:35:14;;;;;;;56.08;2.72;;;;;;;;;;5052314;28;20206;-70
2023/11/25 05:37:43;;;;;;;56.30;3.00;;;;;;;;;;5052273;28;20634;-70
2023/11/25 05:40:11;;;;;;;56.05;3.30;;;;;;;;;;5051813;28;20217;-71
2023/11/25 05:42:41;;;;;;;55.97;2.80;;;;;;;;;;5052183;28;20314;-70
2023/11/25 05:45:10;;;;;;;55.97;2.90;;;;;;;;;;5052402;28;20213;-71
2023/11/25 05:47:37;;;;;;;56.08;2.83;;;;;;;;;;5052307;28;20214;-71
2023/11/25 05:50:06;;;;;;;56.10;2.92;;;;;;;;;;5051785;28;20210;-71
2023/11/25 05:52:33;;;;;;;55.92;2.92;;;;;;;;;;5051775;28;20238;-71
2023/11/25 05:55:00;;;;;;;56.05;3.00;;;;;;;;;;5052011;28;20210;-71
2023/11/25 05:57:27;;;;;;;55.92;2.78;;;;;;;;;;5051985;28;20218;-72
2023/11/25 05:59:54;;;;;;;56.28;3.05;;;;;;;;;;5051959;28;20203;-71
2023/11/25 06:02:22;;;;;;;55.78;2.85;;;;;;;;;;5051333;28;20238;-72
2023/11/25 06:04:49;;;;;;;56.08;2.97;;;;;;;;;;5051621;28;20218;-71
2023/11/25 06:07:17;;;;;;;55.88;2.55;;;;;;;;;;5051461;28;20219;-71
2023/11/25 06:09:44;;;;;;;55.88;2.63;;;;;;;;;;5051556;28;20593;-71
2023/11/25 06:12:13;;;;;;;55.88;2.50;;;;;;;;;;5051616;28;20229;-71
2023/11/25 06:14:40;;;;;;;55.85;2.80;;;;;;;;;;5051645;28;20203;-71
2023/11/25 06:17:07;;;;;;;55.92;2.50;;;;;;;;;;5051720;28;20581;-71
2023/11/25 06:19:35;;;;;;;56.08;2.72;;;;;;;;;;5051185;28;20675;-71
2023/11/25 06:22:04;;;;;;;55.90;2.70;;;;;;;;;;5051701;28;20234;-71
2023/11/25 06:24:32;;;;;;;56.00;2.50;;;;;;;;;;5051141;28;20300;-71
2023/11/25 06:26:59;;;;;;;55.97;2.60;;;;;;;;;;5051589;28;20199;-71
2023/11/25 06:29:26;;;;;;;55.75;2.70;;;;;;;;;;5051386;28;20207;-71
2023/11/25 06:31:54;;;;;;;55.80;2.50;;;;;;;;;;5051725;28;20226;-71
2023/11/25 06:34:21;;;;;;;55.88;2.50;;;;;;;;;;5051007;28;20298;-71
2023/11/25 06:36:49;;;;;;;55.90;2.50;;;;;;;;;;5051410;28;20233;-71
2023/11/25 06:39:22;;;;;;;57.65;3.22;;;;;;;;;;5051632;28;20213;-71
2023/11/25 06:41:51;;;;;;;56.00;2.60;;;;;;;;;;5051430;28;20232;-71
2023/11/25 06:44:18;;;;;;;55.90;2.50;;;;;;;;;;5051165;28;20222;-71
2023/11/25 06:46:46;;;;;;;55.67;2.70;;;;;;;;;;5051165;28;20207;-71
2023/11/25 06:49:13;;;;;;;56.03;3.00;;;;;;;;;;5051220;28;20203;-70
2023/11/25 06:51:41;;;;;;;56.10;2.60;;;;;;;;;;5051486;28;20280;-71
2023/11/25 06:54:09;;;;;;;55.75;2.58;;;;;;;;;;5051415;28;20248;-71
2023/11/25 06:56:36;;;;;;;55.80;2.78;;;;;;;;;;5051284;28;20222;-72
2023/11/25 06:59:05;;;;;;;55.95;2.97;;;;;;;;;;5051238;28;20221;-71
2023/11/25 07:01:32;;;;;;;56.00;2.80;;;;;;;;;;5051347;28;20230;-71
2023/11/25 07:03:59;;;;;;;55.88;2.80;;;;;;;;;;5051059;28;20717;-72
2023/11/25 07:06:26;;;;;;;56.10;2.75;;;;;;;;;;5051184;28;20210;-71
2023/11/25 07:08:54;;;;;;;55.80;2.50;;;;;;;;;;5051169;28;20223;-71
2023/11/25 07:11:23;;;;;;;55.97;2.90;;;;;;;;;;5050718;28;20278;-71
2023/11/25 07:13:50;;;;;;;55.83;2.70;;;;;;;;;;5051099;28;20229;-71
2023/11/25 07:16:19;;;;;;;56.00;2.80;;;;;;;;;;5051081;28;20543;-71
2023/11/25 07:18:47;;;;;;;55.80;2.65;;;;;;;;;;5051108;28;20211;-71
2023/11/25 07:21:15;;;;;;;55.95;2.70;;;;;;;;;;5050828;28;20254;-71
2023/11/25 07:23:42;;;;;;;56.05;3.20;;;;;;;;;;5050604;28;20241;-72
2023/11/25 07:26:11;;;;;;;55.90;2.80;;;;;;;;;;5050949;28;20211;-71
2023/11/25 07:28:38;;;;;;;55.80;2.70;;;;;;;;;;5050711;28;20204;-71
2023/11/25 07:31:07;;;;;;;56.05;2.85;;;;;;;;;;5050645;28;20667;-72
2023/11/25 07:33:35;;;;;;;55.80;2.70;;;;;;;;;;5050474;28;20218;-69
2023/11/25 07:36:02;;;;;;;55.58;2.40;;;;;;;;;;5050698;28;20220;-69
2023/11/25 07:38:30;;;;;;;56.05;2.72;;;;;;;;;;5050349;28;20257;-69
2023/11/25 07:40:57;;;;;;;56.20;2.60;;;;;;;;;;5050413;28;20204;-70
2023/11/25 07:43:24;;;;;;;56.08;2.78;;;;;;;;;;5050382;28;20330;-70
2023/11/25 07:45:51;;;;;;;56.05;2.83;;;;;;;;;;5050842;28;20213;-71
2023/11/25 07:48:19;;;;;;;55.97;2.33;;;;;;;;;;5054205;28;20210;-70
2023/11/25 07:50:47;;;;;;;55.97;2.50;;;;;;;;;;5054202;28;20281;-70
2023/11/25 07:53:14;;;;;;;55.83;2.65;;;;;;;;;;5053875;28;20233;-70
2023/11/25 07:55:43;;;;;;;55.75;2.40;;;;;;;;;;5054406;28;20210;-70
2023/11/25 07:58:11;;;;;;;56.08;2.65;;;;;;;;;;5054336;28;20219;-70
2023/11/25 08:00:38;;;;;;;55.88;2.50;;;;;;;;;;5054049;28;20216;-71
2023/11/25 08:03:06;;;;;;;55.65;2.22;;;;;;;;;;5054088;28;20234;-70
2023/11/25 08:05:34;;;;;;;56.00;2.40;;;;;;;;;;5054006;28;20237;-70
2023/11/25 08:08:03;;;;;;;55.67;2.40;;;;;;;;;;5053936;28;20203;-70
2023/11/25 08:10:34;;;;;;;55.63;2.20;;;;;;;;;;5053882;28;20312;-70
2023/11/25 08:13:01;;;;;;;55.67;2.33;;;;;;;;;;5054049;28;20774;-71
2023/11/25 08:15:28;;;;;;;55.85;2.70;;;;;;;;;;5054101;28;20211;-71
2023/11/25 08:17:55;;;;;;;58.55;2.67;;;;;;;;;;5053933;28;20214;-70
2023/11/25 08:20:22;;;;;;;55.88;2.45;;;;;;;;;;5053937;28;20226;-70
2023/11/25 08:22:49;;;;;;;55.60;2.70;;;;;;;;;;5054048;28;20227;-71
2023/11/25 08:25:18;;;;;;;55.78;2.50;;;;;;;;;;5053874;28;20238;-69
2023/11/25 08:27:45;;;;;;;55.75;2.70;;;;;;;;;;5054051;28;20202;-70
2023/11/25 08:30:12;;;;;;;56.10;2.80;;;;;;;;;;5053749;28;20213;-71
2023/11/25 08:32:40;;;;;;;55.88;2.75;;;;;;;;;;5053381;28;20224;-70
2023/11/25 08:35:08;;;;;;;55.88;2.30;;;;;;;;;;5053383;28;20202;-71
2023/11/25 08:37:36;;;;;;;55.75;2.58;;;;;;;;;;5053579;28;20215;-70
2023/11/25 08:40:04;;;;;;;56.10;2.70;;;;;;;;;;5053255;28;20336;-70
2023/11/25 08:42:32;;;;;;;55.53;2.40;;;;;;;;;;5053447;28;20227;-70
2023/11/25 08:45:01;;;;;;;55.70;2.67;;;;;;;;;;5053684;28;20481;-70
2023/11/25 08:47:28;;;;;;;55.88;2.70;;;;;;;;;;5053250;28;20453;-70
2023/11/25 08:49:56;;;;;;;55.80;2.63;;;;;;;;;;5053366;28;20211;-70
2023/11/25 08:52:24;;;;;;;55.88;2.75;;;;;;;;;;5053233;28;20476;-70
2023/11/25 08:54:52;;;;;;;56.00;2.50;;;;;;;;;;5052938;28;20204;-71
2023/11/25 08:57:21;;;;;;;55.57;2.60;;;;;;;;;;5052861;28;20504;-71
2023/11/25 08:59:50;;;;;;;55.88;3.05;;;;;;;;;;5052840;28;20520;-70
2023/11/25 09:02:22;;;;;;;55.67;2.50;;;;;;;;;;5052722;28;20230;-69
2023/11/25 09:04:49;;;;;;;55.70;2.33;;;;;;;;;;5052722;28;21020;-70
2023/11/25 09:07:17;;;;;;;55.63;2.40;;;;;;;;;;5053032;28;20451;-70
2023/11/25 09:09:49;;;;;;;55.80;2.50;;;;;;;;;;5052671;28;20465;-70
2023/11/25 09:12:16;;;;;;;56.63;3.00;;;;;;;;;;5052810;28;20481;-70
2023/11/25 09:14:44;;;;;;;55.53;2.30;;;;;;;;;;5053039;28;20784;-71
2023/11/25 09:17:15;;;;;;;55.37;2.30;;;;;;;;;;5052717;28;20481;-70
2023/11/25 09:19:42;;;;;;;55.63;2.50;;;;;;;;;;5052597;28;20458;-70
2023/11/25 09:22:11;;;;;;;56.20;3.33;;;;;;;;;;5052703;28;20465;-70
2023/11/25 09:24:39;;;;;;;55.63;2.50;;;;;;;;;;5052355;28;20494;-70
2023/11/25 09:27:06;;;;;;;55.67;2.40;;;;;;;;;;5052558;28;20494;-70
2023/11/25 09:29:34;;;;;;;55.67;2.17;;;;;;;;;;5052489;28;20450;-70
2023/11/25 09:32:01;;;;;;;55.40;2.40;;;;;;;;;;5052482;28;20520;-70
2023/11/25 09:34:30;;;;;;;55.53;2.30;;;;;;;;;;5052296;28;20457;-71
2023/11/25 09:36:57;;;;;;;55.63;2.43;;;;;;;;;;5052529;28;20454;-70
2023/11/25 09:39:24;;;;;;;55.40;2.20;;;;;;;;;;5052039;28;20453;-70
2023/11/25 09:41:51;;;;;;;55.53;2.37;;;;;;;;;;5052014;28;20540;-70
2023/11/25 09:44:19;;;;;;;55.70;2.70;;;;;;;;;;5052155;28;20568;-70
2023/11/25 09:46:48;;;;;;;55.57;2.10;;;;;;;;;;5052245;28;20453;-70
2023/11/25 09:49:16;;;;;;;55.53;2.40;;;;;;;;;;5052227;28;20457;-71
2023/11/25 09:51:46;;;;;;;55.50;2.23;;;;;;;;;;5051989;28;20564;-70
2023/11/25 09:54:16;;;;;;;55.47;2.13;;;;;;;;;;5052031;28;20899;-71
2023/11/25 09:56:43;;;;;;;55.57;2.13;;;;;;;;;;5051701;28;20454;-71
2023/11/25 09:59:13;;;;;;;55.60;2.10;;;;;;;;;;5051832;28;20469;-71
2023/11/25 10:01:41;;;;;;;55.63;2.40;;;;;;;;;;5051867;28;20881;-71
2023/11/25 10:04:08;;;;;;;55.67;2.50;;;;;;;;;;5051573;28;20486;-71
2023/11/25 10:06:35;;;;;;;55.73;2.30;;;;;;;;;;5051544;28;20898;-71
2023/11/25 10:09:08;;;;;;;55.60;2.20;;;;;;;;;;5051193;28;20846;-71
2023/11/25 10:11:36;;;;;;;55.57;2.10;;;;;;;;;;5051966;28;20470;-71
2023/11/25 10:14:04;;;;;;;56.10;2.20;;;;;;;;;;5051491;28;20474;-71
2023/11/25 10:16:31;;;;;;;55.80;2.40;;;;;;;;;;5051517;28;20456;-71
2023/11/25 10:18:58;;;;;;;55.80;2.20;;;;;;;;;;5051604;28;20855;-71
2023/11/25 10:21:25;;;;;;;55.47;2.07;;;;;;;;;;5051695;28;20466;-71
2023/11/25 10:23:54;;;;;;;55.90;2.13;;;;;;;;;;5051292;28;20448;-71
2023/11/25 10:26:23;;;;;;;55.90;1.97;;;;;;;;;;5051391;28;20508;-72
2023/11/25 10:28:50;;;;;;;55.90;2.13;;;;;;;;;;5051302;28;20454;-71
2023/11/25 10:31:19;;;;;;;55.80;2.30;;;;;;;;;;5051060;28;20473;-71
2023/11/25 10:33:46;;;;;;;55.80;2.00;;;;;;;;;;5051362;28;20473;-71
2023/11/25 10:36:13;;;;;;;55.57;2.10;;;;;;;;;;5051337;28;20450;-71
2023/11/25 10:38:41;;;;;;;55.77;2.30;;;;;;;;;;5051450;28;20858;-71
2023/11/25 10:41:09;;;;;;;56.00;2.60;;;;;;;;;;5051187;28;20461;-70
2023/11/25 10:43:37;;;;;;;56.30;3.00;;;;;;;;;;5050904;28;21029;-71
2023/11/25 10:46:05;;;;;;;55.63;2.03;;;;;;;;;;5051194;28;20493;-71
2023/11/25 10:48:32;;;;;;;55.63;2.10;;;;;;;;;;5050934;28;20450;-71
2023/11/25 10:51:00;;;;;;;56.03;2.63;;;;;;;;;;5051130;28;20448;-71
2023/11/25 10:53:29;;;;;;;55.90;2.50;;;;;;;;;;5050849;28;20957;-70
2023/11/25 10:55:58;;;;;;;55.60;2.33;;;;;;;;;;5050918;28;20869;-71
2023/11/25 10:58:25;;;;;;;55.70;2.40;;;;;;;;;;5050826;28;20480;-71
2023/11/25 11:00:54;;;;;;;57.33;3.47;;;;;;;;;;5050538;28;20458;-71
2023/11/25 11:03:22;;;;;;;55.63;2.70;;;;;;;;;;5051028;28;20451;-71
2023/11/25 11:05:51;;;;;;;55.90;2.30;;;;;;;;;;5050508;28;20491;-71
2023/11/25 11:08:21;;;;;;;55.80;2.40;;;;;;;;;;5050865;28;20451;-71
2023/11/25 11:10:51;;;;;;;56.30;2.20;;;;;;;;;;5050586;28;20534;-69
2023/11/25 11:13:20;;;;;;;55.90;1.70;;;;;;;;;;5050466;28;20450;-71
2023/11/25 11:15:50;;;;;;;56.33;2.27;;;;;;;;;;5050119;28;20443;-71
2023/11/25 11:18:21;;;;;;;55.90;1.87;;;;;;;;;;5050721;28;20800;-71
2023/11/25 11:20:50;;;;;;;55.67;1.90;;;;;;;;;;5050433;28;20985;-71
2023/11/25 11:23:19;;;;;;;55.47;2.00;;;;;;;;;;5054443;28;20905;-71
2023/11/25 11:25:49;;;;;;;55.87;2.33;;;;;;;;;;5054380;28;20498;-70
2023/11/25 11:28:22;;;;;;;55.57;2.27;;;;;;;;;;5054341;28;20461;-71
2023/11/25 11:31:01;;;;;;;55.80;2.30;;;;;;;;;;5054227;28;20457;-70
2023/11/25 11:33:30;;;;;;;56.90;2.90;;;;;;;;;;5054433;28;20446;-70
2023/11/25 11:35:58;;;;;;;55.77;2.20;;;;;;;;;;5054094;28;20815;-71
2023/11/25 11:38:26;;;;;;;55.73;2.50;;;;;;;;;;5054015;28;20857;-70
2023/11/25 11:40:54;;;;;;;55.97;2.30;;;;;;;;;;5054126;28;20486;-70
2023/11/25 11:43:21;;;;;;;55.83;2.43;;;;;;;;;;5054664;28;20460;-70
2023/11/25 11:45:49;;;;;;;55.70;2.50;;;;;;;;;;5054016;28;20497;-71
2023/11/25 11:48:16;;;;;;;55.97;2.60;;;;;;;;;;5054119;28;20452;-71
2023/11/25 11:50:46;;;;;;;55.97;2.80;;;;;;;;;;5053212;28;20450;-71
2023/11/25 11:53:13;;;;;;;55.87;2.60;;;;;;;;;;5054164;28;20509;-71
2023/11/25 11:55:40;;;;;;;55.93;2.43;;;;;;;;;;5053907;28;20997;-71
2023/11/25 11:58:08;;;;;;;56.07;2.67;;;;;;;;;;5054336;28;20449;-72
2023/11/25 12:00:43;;;;;;;56.33;2.83;;;;;;;;;;5054068;28;20575;-71
2023/11/25 12:03:10;;;;;;;56.00;2.60;;;;;;;;;;5054307;28;20603;-72
2023/11/25 12:05:38;;;;;;;56.20;3.08;;;;;;;;;;5054359;28;20691;-72
2023/11/25 12:08:06;;;;;;;58.13;3.42;;;;;;;;;;5055281;28;20211;-72
2023/11/25 12:10:33;;;;;;;56.42;2.90;;;;;;;;;;5054243;28;20302;-72
2023/11/25 12:13:01;;;;;;;56.15;2.80;;;;;;;;;;5054454;28;20602;-72
2023/11/25 12:15:30;;;;;;;56.60;3.22;;;;;;;;;;5053858;28;20206;-72
2023/11/25 12:17:57;;;;;;;56.07;2.67;;;;;;;;;;5053878;28;20301;-72
2023/11/25 12:20:26;;;;;;;55.93;2.90;;;;;;;;;;5054359;28;20510;-72
2023/11/25 12:22:53;;;;;;;56.00;2.80;;;;;;;;;;5054585;28;20465;-72
2023/11/25 12:25:22;;;;;;;55.77;2.57;;;;;;;;;;5054437;28;20867;-72
2023/11/25 12:27:52;;;;;;;55.90;2.50;;;;;;;;;;5053943;28;20453;-70
2023/11/25 12:30:19;;;;;;;57.00;3.28;;;;;;;;;;5054900;28;20452;-70
2023/11/25 12:32:46;;;;;;;56.10;2.65;;;;;;;;;;5053900;28;20231;-71
2023/11/25 12:35:13;;;;;;;56.10;2.90;;;;;;;;;;5054177;28;20588;-71
2023/11/25 12:37:43;;;;;;;56.08;2.40;;;;;;;;;;5053993;28;20214;-72
2023/11/25 12:40:21;;;;;;;56.00;2.60;;;;;;;;;;5054534;28;20215;-71
2023/11/25 12:42:49;;;;;;;56.00;2.70;;;;;;;;;;5053475;28;20842;-72
2023/11/25 12:45:32;;;;;;;56.17;2.60;;;;;;;;;;5053332;28;20226;-71
2023/11/25 12:48:00;;;;;;;56.00;2.60;;;;;;;;;;5053787;28;20236;-71
2023/11/25 12:50:28;;;;;;;56.17;2.80;;;;;;;;;;5053659;28;20446;-71
2023/11/25 12:53:09;;;;;;;56.17;3.03;;;;;;;;;;5053867;28;20262;-71
2023/11/25 12:55:39;;;;;;;56.05;3.33;;;;;;;;;;5053287;28;20939;-72
2023/11/25 12:58:12;;;;;;;55.90;3.00;;;;;;;;;;5053649;28;20233;-71
2023/11/25 13:00:45;;;;;;;56.03;2.70;;;;;;;;;;5053101;28;20210;-71
2023/11/25 13:03:12;;;;;;;56.17;2.83;;;;;;;;;;5053912;28;20236;-71
2023/11/25 13:05:39;;;;;;;55.88;2.67;;;;;;;;;;5052934;28;20232;-71
2023/11/25 13:08:22;;;;;;;55.97;2.55;;;;;;;;;;5053210;28;20207;-71
2023/11/25 13:10:50;;;;;;;55.97;2.50;;;;;;;;;;5053434;28;20207;-71
2023/11/25 13:13:20;;;;;;;56.00;2.50;;;;;;;;;;5052749;28;20223;-71
2023/11/25 13:15:47;;;;;;;55.70;2.60;;;;;;;;;;5052869;28;20301;-71
2023/11/25 13:18:14;;;;;;;56.00;2.55;;;;;;;;;;5052992;28;20445;-71
2023/11/25 13:20:42;;;;;;;55.87;3.07;;;;;;;;;;5053220;28;20218;-71
2023/11/25 13:23:09;;;;;;;56.00;2.58;;;;;;;;;;5052943;28;20493;-71
2023/11/25 13:25:36;;;;;;;55.63;2.47;;;;;;;;;;5052914;28;20231;-69
2023/11/25 13:28:05;;;;;;;55.78;2.63;;;;;;;;;;5052474;28;20207;-71
2023/11/25 13:30:33;;;;;;;55.87;2.80;;;;;;;;;;5052707;28;20298;-71
2023/11/25 13:33:01;;;;;;;56.00;2.60;;;;;;;;;;5052603;28;20474;-71
2023/11/25 13:35:29;;;;;;;55.63;2.23;;;;;;;;;;5053086;28;20454;-71
2023/11/25 13:37:58;;;;;;;55.93;3.00;;;;;;;;;;5044282;28;20946;-71
2023/11/25 13:40:29;;;;;;;56.07;2.60;;;;;;;;;;5052272;28;20459;-70
2023/11/25 13:42:56;;;;;;;55.92;2.75;;;;;;;;;;5052099;28;20465;-71
2023/11/25 13:45:24;;;;;;;55.90;2.60;;;;;;;;;;5051383;28;20224;-71
2023/11/25 13:47:53;;;;;;;55.85;2.85;;;;;;;;;;5052789;28;20293;-70
2023/11/25 13:50:20;;;;;;;55.95;2.92;;;;;;;;;;5052650;28;20669;-71
2023/11/25 13:52:47;;;;;;;55.77;2.80;;;;;;;;;;5052544;28;20224;-71
2023/11/25 13:55:16;;;;;;;55.67;2.50;;;;;;;;;;5052614;28;20450;-71
2023/11/25 13:57:43;;;;;;;55.90;2.50;;;;;;;;;;5051801;28;20499;-71
2023/11/25 14:00:12;;;;;;;56.00;2.70;;;;;;;;;;5051591;28;20211;-72
2023/11/25 14:02:39;;;;;;;55.97;2.47;;;;;;;;;;5051825;28;20239;-70
2023/11/25 14:05:09;;;;;;;56.00;2.60;;;;;;;;;;5051770;28;20246;-71
2023/11/25 14:07:36;;;;;;;56.00;2.70;;;;;;;;;;5051554;28;20488;-70
2023/11/25 14:10:04;;;;;;;56.10;3.00;;;;;;;;;;5051247;28;20470;-70
2023/11/25 14:12:31;;;;;;;55.88;2.80;;;;;;;;;;5051265;28;20470;-70
2023/11/25 14:14:59;;;;;;;56.20;3.03;;;;;;;;;;5051168;28;20241;-70
2023/11/25 14:17:26;;;;;;;56.28;2.78;;;;;;;;;;5051486;28;20206;-70
2023/11/25 14:19:54;;;;;;;56.50;2.90;;;;;;;;;;5051267;28;20207;-70
2023/11/25 14:22:23;;;;;;;56.20;3.22;;;;;;;;;;5051271;28;20281;-70
2023/11/25 14:24:50;;;;;;;55.78;2.53;;;;;;;;;;5051029;28;20202;-70
2023/11/25 14:27:17;;;;;;;55.88;2.85;;;;;;;;;;5051534;28;20280;-70
2023/11/25 14:29:44;;;;;;;56.00;3.10;;;;;;;;;;5050894;28;20216;-70
2023/11/25 14:32:12;;;;;;;55.88;2.40;;;;;;;;;;5051080;28;20235;-70
2023/11/25 14:34:40;;;;;;;56.10;3.05;;;;;;;;;;5051049;28;20207;-70